Time;durP1;ratioP1;P1;durP2;ratioP2;P2;SDS_P1;SDS_P2;PMS_P1;PMS_P2;Temp;Humidity;BMP_temperature;BMP_pressure;BME280_temperature;BME280_humidity;BME280_pressure;Samples;Min_cycle;Max_cycle;Signal;HPM_P1;HPM_P2
2023/02/18 00:01:13;;;;;;;4.38;1.45;;;;;;;10.83;62.17;99949.25;5042127;27;96788;-84
2023/02/18 00:03:40;;;;;;;1.05;0.85;;;;;;;10.88;61.77;99967.44;5042483;27;99554;-84
2023/02/18 00:06:22;;;;;;;3.85;1.08;;;;;;;10.89;61.16;99979.66;5045562;27;97786;-83
2023/02/18 00:08:48;;;;;;;2.65;1.13;;;;;;;10.75;61.36;99960.97;5036278;27;96813;-85
2023/02/18 00:11:15;;;;;;;4.55;1.40;;;;;;;10.88;60.58;99980.56;5021839;27;97516;-87
2023/02/18 00:13:41;;;;;;;3.50;1.20;;;;;;;10.61;59.59;99944.00;5025758;27;101125;-84
2023/02/18 00:16:10;;;;;;;4.78;1.02;;;;;;;10.79;58.96;99979.19;5029135;27;100978;-84
2023/02/18 00:18:35;;;;;;;3.30;1.17;;;;;;;10.55;58.57;99941.63;5039766;27;96756;-84
2023/02/18 00:21:05;;;;;;;2.00;0.93;;;;;;;10.70;58.47;99970.81;5044456;27;96876;-87
2023/02/18 00:23:31;;;;;;;2.17;0.90;;;;;;;10.82;58.05;99992.19;5050127;27;101673;-84
2023/02/18 00:26:01;;;;;;;3.22;1.30;;;;;;;10.78;57.81;100001.06;5032447;27;101023;-84
2023/02/18 00:28:27;;;;;;;2.25;0.93;;;;;;;10.75;57.63;100006.44;5005757;27;96967;-84
2023/02/18 00:30:53;;;;;;;4.35;1.20;;;;;;;10.74;57.49;99996.88;4997132;27;98043;-84
2023/02/18 00:33:18;;;;;;;1.58;0.95;;;;;;;10.50;57.66;99969.84;5002246;27;101547;-83
2023/02/18 00:35:44;;;;;;;2.13;1.20;;;;;;;10.69;57.74;99997.97;5003115;28;97493;-84
2023/02/18 00:38:09;;;;;;;3.67;1.20;;;;;;;10.69;57.15;99998.81;5015018;27;96819;-83
2023/02/18 00:40:39;;;;;;;2.22;0.93;;;;;;;10.68;57.13;99999.75;5000749;27;97486;-84
2023/02/18 00:43:05;;;;;;;2.13;0.80;;;;;;;10.66;56.61;100009.44;5000651;27;101245;-84
2023/02/18 00:45:30;;;;;;;1.85;0.98;;;;;;;10.66;56.69;100001.56;5014691;27;101590;-84
2023/02/18 00:47:56;;;;;;;1.70;1.02;;;;;;;10.67;56.00;100007.66;4991924;27;96825;-83
2023/02/18 00:50:22;;;;;;;2.58;1.13;;;;;;;10.60;55.42;99999.19;5016156;27;97007;-84
2023/02/18 00:52:49;;;;;;;3.65;0.90;;;;;;;10.61;55.25;100007.00;5009762;27;102190;-85
2023/02/18 00:55:14;;;;;;;2.83;0.98;;;;;;;10.58;54.06;100004.50;4995342;27;101260;-83
2023/02/18 00:57:40;;;;;;;1.60;0.90;;;;;;;10.53;53.79;100022.22;4999763;27;97385;-84
2023/02/18 01:00:07;;;;;;;2.83;1.10;;;;;;;10.51;53.89;100008.28;5000584;27;97164;-84
2023/02/18 01:02:33;;;;;;;2.13;0.82;;;;;;;10.54;53.42;100030.94;4993150;27;101846;-84
2023/02/18 01:04:58;;;;;;;4.13;1.00;;;;;;;10.52;53.43;100002.09;5013351;27;101156;-83
2023/02/18 01:07:24;;;;;;;1.65;0.80;;;;;;;10.40;53.19;100006.06;4998875;27;97515;-83
2023/02/18 01:09:50;;;;;;;4.78;1.02;;;;;;;10.45;52.49;100019.00;4996848;27;97064;-85
2023/02/18 01:12:15;;;;;;;2.13;0.70;;;;;;;10.37;52.54;100019.28;5014676;27;98524;-84
2023/02/18 01:14:41;;;;;;;2.65;0.90;;;;;;;10.44;52.40;100017.28;5012496;27;97899;-83
2023/02/18 01:17:07;;;;;;;1.25;0.63;;;;;;;10.36;51.91;100022.84;4997211;27;97316;-83
2023/02/18 01:19:32;;;;;;;5.50;0.93;;;;;;;10.42;51.51;100024.38;4996477;27;97643;-84
2023/02/18 01:21:59;;;;;;;5.47;1.10;;;;;;;10.34;51.14;100024.66;5009954;27;101396;-83
2023/02/18 01:24:24;;;;;;;2.95;0.98;;;;;;;10.39;51.62;100029.75;5011151;27;98326;-84
2023/02/18 01:26:50;;;;;;;4.55;1.23;;;;;;;10.31;51.88;100009.03;5025299;27;97989;-84
2023/02/18 01:29:16;;;;;;;2.53;1.13;;;;;;;10.40;51.37;100031.44;5051631;27;97731;-84
2023/02/18 01:31:42;;;;;;;1.98;0.65;;;;;;;10.37;50.88;100023.69;5047713;27;101032;-84
2023/02/18 01:34:07;;;;;;;1.67;0.70;;;;;;;10.40;51.34;100026.19;5024843;27;101030;-84
2023/02/18 01:36:33;;;;;;;1.92;0.70;;;;;;;10.26;51.58;100010.94;5026881;27;97145;-83
2023/02/18 01:38:58;;;;;;;1.73;0.93;;;;;;;10.37;51.22;100026.31;5036111;27;96870;-83
2023/02/18 01:41:24;;;;;;;2.85;1.08;;;;;;;10.23;50.73;99995.31;5040447;27;101841;-84
2023/02/18 01:44:18;;;;;;;2.75;0.82;;;;;;;10.31;50.97;100023.94;5033579;27;101397;-84
2023/02/18 01:46:45;;;;;;;3.50;0.80;;;;;;;10.25;50.70;100013.63;5049018;27;97505;-83
2023/02/18 01:49:14;;;;;;;1.33;0.68;;;;;;;10.32;50.70;100033.50;5034572;27;96945;-84
2023/02/18 01:51:49;;;;;;;2.63;1.30;;;;;;;10.19;50.92;100015.56;5047140;27;97620;-83
2023/02/18 01:54:35;;;;;;;5.30;1.45;;;;;;;10.28;50.96;100038.00;5041998;27;101534;-84
2023/02/18 01:57:03;;;;;;;3.95;1.48;;;;;;;10.28;51.17;100042.41;5048165;27;97342;-84
2023/02/18 01:59:32;;;;;;;4.03;1.75;;;;;;;10.07;51.64;100008.16;5051494;27;96896;-83
2023/02/18 02:01:57;;;;;;;4.97;1.63;;;;;;;10.24;51.56;100041.63;5036126;27;101902;-84
2023/02/18 02:04:23;;;;;;;4.30;1.60;;;;;;;10.08;52.12;100016.88;5049154;27;101248;-83
2023/02/18 02:06:49;;;;;;;6.85;2.15;;;;;;;10.25;51.97;100051.22;5045003;27;97306;-84
2023/02/18 02:09:17;;;;;;;4.68;1.98;;;;;;;10.07;52.57;100018.66;5028451;27;97770;-84
2023/02/18 02:12:21;;;;;;;3.92;1.60;;;;;;;10.22;52.58;100040.84;5036428;27;98413;-85
2023/02/18 02:15:04;;;;;;;4.63;1.42;;;;;;;10.07;53.62;100016.03;4966982;27;101434;-83
2023/02/18 02:17:51;;;;;;;6.50;2.08;;;;;;;10.19;53.67;100033.06;5051032;27;96894;-84
2023/02/18 02:20:31;;;;;;;5.20;1.60;;;;;;;10.15;53.95;100041.94;5082909;27;97000;-83
2023/02/18 02:23:06;;;;;;;5.82;1.63;;;;;;;10.12;54.05;100045.56;5050532;27;101139;-84
2023/02/18 02:26:05;;;;;;;4.00;1.77;;;;;;;10.09;54.19;100050.03;5072319;27;101967;-84
2023/02/18 02:28:50;;;;;;;2.92;1.40;;;;;;;10.04;53.65;100042.38;5043344;27;97148;-84
2023/02/18 02:31:27;;;;;;;7.03;2.17;;;;;;;10.06;53.89;100045.75;5049850;27;97543;-84
2023/02/18 02:34:00;;;;;;;7.78;1.85;;;;;;;10.04;53.53;100054.63;5067718;27;98173;-84
2023/02/18 02:36:38;;;;;;;5.15;2.25;;;;;;;9.96;52.70;100055.75;5058819;27;100703;-83
2023/02/18 02:39:25;;;;;;;5.78;1.75;;;;;;;9.97;53.18;100044.34;5044141;27;97065;-84
2023/02/18 02:41:54;;;;;;;6.72;1.70;;;;;;;9.97;52.91;100040.84;5050930;27;97187;-83
2023/02/18 02:44:23;;;;;;;8.15;2.15;;;;;;;9.85;52.73;100031.66;5066790;27;99309;-84
2023/02/18 02:47:00;;;;;;;7.90;1.65;;;;;;;9.94;51.27;100056.69;5019451;27;101617;-83
2023/02/18 02:49:32;;;;;;;4.55;1.40;;;;;;;9.94;51.70;100046.22;5054595;27;96881;-83
2023/02/18 02:52:18;;;;;;;6.80;2.03;;;;;;;9.74;51.16;100018.97;5039120;27;97914;-83
2023/02/18 02:54:44;;;;;;;5.50;1.73;;;;;;;9.78;50.31;100030.19;5052845;27;101830;-84
2023/02/18 02:57:16;;;;;;;5.82;2.00;;;;;;;9.83;49.87;100046.63;5046459;27;101515;-84
2023/02/18 02:59:58;;;;;;;5.05;1.95;;;;;;;9.84;50.06;100053.56;5052640;27;96809;-86
2023/02/18 03:02:42;;;;;;;5.70;1.50;;;;;;;9.81;49.97;100056.28;5042630;27;97159;-83
2023/02/18 03:05:24;;;;;;;5.85;2.15;;;;;;;9.77;49.61;100054.66;5052260;27;101368;-83
2023/02/18 03:08:01;;;;;;;5.13;1.30;;;;;;;9.71;49.06;100047.88;5050990;27;98143;-83
2023/02/18 03:10:49;;;;;;;6.30;1.90;;;;;;;9.57;49.59;100047.53;5056649;27;98014;-84
2023/02/18 03:13:25;;;;;;;5.63;1.45;;;;;;;9.72;49.37;100051.38;5048954;27;97415;-84
2023/02/18 03:15:58;;;;;;;6.00;1.58;;;;;;;9.59;49.52;100040.44;5051459;27;100388;-84
2023/02/18 03:18:44;;;;;;;4.90;1.35;;;;;;;9.65;49.27;100050.72;5053178;27;101186;-84
2023/02/18 03:21:24;;;;;;;5.18;1.83;;;;;;;9.74;49.36;100068.75;5046768;27;97117;-84
2023/02/18 03:24:06;;;;;;;4.13;1.80;;;;;;;9.70;48.82;100053.19;5044935;27;97557;-84
2023/02/18 03:26:33;;;;;;;5.72;1.40;;;;;;;9.57;48.54;100047.53;5034806;27;102177;-84
2023/02/18 03:29:02;;;;;;;5.88;1.52;;;;;;;9.56;48.53;100043.16;5051804;27;101745;-84
2023/02/18 03:31:28;;;;;;;5.60;1.40;;;;;;;9.55;48.18;100059.81;5047243;27;96809;-83
2023/02/18 03:34:04;;;;;;;4.30;1.90;;;;;;;9.54;48.35;100058.09;5037982;27;97170;-84
2023/02/18 03:36:31;;;;;;;5.38;2.80;;;;;;;9.60;48.28;100067.50;5038691;27;101821;-84
2023/02/18 03:39:16;;;;;;;3.92;1.80;;;;;;;9.60;48.70;100076.25;5023158;27;101403;-85
2023/02/18 03:41:43;;;;;;;4.57;1.58;;;;;;;9.58;48.46;100080.66;5042739;27;97198;-84
2023/02/18 03:44:10;;;;;;;4.63;1.50;;;;;;;9.55;48.39;100085.16;5054364;27;97254;-84
2023/02/18 03:46:38;;;;;;;3.70;1.30;;;;;;;9.53;48.67;100083.44;5050708;27;100520;-84
2023/02/18 03:49:03;;;;;;;2.95;1.30;;;;;;;9.48;48.64;100071.38;5036928;27;99203;-83
2023/02/18 03:51:30;;;;;;;6.50;1.73;;;;;;;9.52;48.23;100092.22;5050090;27;97188;-83
2023/02/18 03:53:55;;;;;;;4.68;1.52;;;;;;;9.53;48.69;100088.66;5048104;27;97297;-85
2023/02/18 03:56:21;;;;;;;7.30;1.60;;;;;;;9.48;47.87;100081.88;5053490;27;99867;-84
2023/02/18 03:58:47;;;;;;;4.68;1.65;;;;;;;9.48;48.15;100095.84;5054548;27;97824;-84
2023/02/18 04:01:13;;;;;;;4.45;1.80;;;;;;;9.51;48.50;100097.50;5053815;27;97346;-83
2023/02/18 04:03:38;;;;;;;3.75;1.50;;;;;;;9.45;48.11;100093.34;5034499;27;97431;-82
2023/02/18 04:06:04;;;;;;;4.93;1.42;;;;;;;9.49;48.24;100105.41;5043163;27;101633;-83
2023/02/18 04:08:30;;;;;;;4.28;1.33;;;;;;;9.45;48.22;100098.56;5035374;27;100755;-84
2023/02/18 04:10:55;;;;;;;4.00;1.30;;;;;;;9.37;48.20;100089.25;5031623;27;97494;-84
2023/02/18 04:13:21;;;;;;;3.28;1.00;;;;;;;9.44;48.18;100099.47;5054251;27;96832;-84
2023/02/18 04:15:50;;;;;;;2.33;1.17;;;;;;;9.21;48.23;100073.16;5053788;27;101032;-83
2023/02/18 04:18:15;;;;;;;3.47;1.35;;;;;;;9.42;48.93;100116.13;5044315;27;101250;-83
2023/02/18 04:20:41;;;;;;;4.60;1.30;;;;;;;9.29;48.36;100090.34;5031272;27;96784;-83
2023/02/18 04:23:07;;;;;;;3.15;0.98;;;;;;;9.36;48.50;100105.84;5051211;27;97926;-83
2023/02/18 04:25:33;;;;;;;4.22;1.48;;;;;;;9.29;48.75;100111.28;5040625;27;101339;-83
2023/02/18 04:27:58;;;;;;;3.00;1.25;;;;;;;9.32;48.79;100096.41;5036979;27;101499;-84
2023/02/18 04:30:24;;;;;;;2.97;1.13;;;;;;;9.23;48.81;100095.78;5032965;27;97008;-84
2023/02/18 04:32:50;;;;;;;3.95;1.20;;;;;;;9.27;48.91;100092.16;5030181;27;96851;-84
2023/02/18 04:35:15;;;;;;;2.97;1.17;;;;;;;9.27;48.72;100105.25;5049974;27;101470;-84
2023/02/18 04:37:41;;;;;;;2.95;1.05;;;;;;;9.32;48.86;100112.13;5024090;27;100733;-85
2023/02/18 04:40:07;;;;;;;4.57;1.40;;;;;;;9.11;48.97;100064.75;5023377;27;97121;-85
2023/02/18 04:42:33;;;;;;;2.30;0.98;;;;;;;9.25;49.42;100103.56;5032956;27;97440;-84
2023/02/18 04:44:58;;;;;;;3.95;1.50;;;;;;;9.27;49.31;100107.84;5049019;27;100044;-85
2023/02/18 04:47:24;;;;;;;3.20;1.10;;;;;;;9.29;49.48;100107.81;5028330;27;101150;-84
2023/02/18 04:49:50;;;;;;;3.95;1.27;;;;;;;9.26;49.04;100098.31;5060199;27;97129;-85
2023/02/18 04:52:15;;;;;;;3.97;1.25;;;;;;;9.09;49.03;100070.94;5053775;27;96874;-84
2023/02/18 04:54:41;;;;;;;3.90;1.20;;;;;;;9.25;49.43;100098.34;5042117;27;100900;-84
2023/02/18 04:57:06;;;;;;;2.50;1.30;;;;;;;9.28;49.26;100106.97;5049078;27;101442;-83
2023/02/18 04:59:32;;;;;;;5.00;1.27;;;;;;;9.26;48.90;100094.81;5026008;27;98006;-84
2023/02/18 05:01:58;;;;;;;3.45;1.20;;;;;;;9.29;48.90;100095.56;5053444;27;97092;-85
2023/02/18 05:04:23;;;;;;;4.13;1.10;;;;;;;9.29;49.06;100103.44;5052354;27;101134;-84
2023/02/18 05:06:49;;;;;;;4.50;1.38;;;;;;;9.13;49.10;100068.16;5049178;27;101098;-84
2023/02/18 05:09:14;;;;;;;3.72;1.45;;;;;;;9.32;48.89;100109.50;5030307;27;97000;-84
2023/02/18 05:11:41;;;;;;;5.30;1.42;;;;;;;9.28;48.68;100099.13;5036468;27;97096;-84
2023/02/18 05:14:07;;;;;;;5.03;1.30;;;;;;;9.27;48.79;100099.16;5031634;27;101655;-83
2023/02/18 05:16:32;;;;;;;5.72;1.40;;;;;;;9.25;48.75;100080.88;5039112;27;101240;-84
2023/02/18 05:18:58;;;;;;;3.40;1.42;;;;;;;9.30;49.13;100102.53;5042805;27;97071;-84
2023/02/18 05:21:24;;;;;;;3.63;1.45;;;;;;;9.29;49.18;100102.59;5052689;27;97167;-84
2023/02/18 05:23:49;;;;;;;4.07;1.75;;;;;;;9.23;48.84;100095.78;5045701;27;100059;-84
2023/02/18 05:26:15;;;;;;;3.25;1.45;;;;;;;9.29;48.85;100107.81;5033068;27;101145;-84
2023/02/18 05:28:40;;;;;;;3.35;1.63;;;;;;;9.29;48.71;100105.22;5051999;27;97807;-83
2023/02/18 05:31:06;;;;;;;2.58;1.20;;;;;;;9.30;48.38;100113.00;5051230;27;97119;-84
2023/02/18 05:33:31;;;;;;;8.00;1.95;;;;;;;9.24;48.22;100107.97;5047535;27;101388;-84
2023/02/18 05:35:57;;;;;;;4.97;1.55;;;;;;;9.19;48.04;100107.28;5054288;27;97558;-84
2023/02/18 05:38:22;;;;;;;3.15;1.45;;;;;;;9.27;48.49;100115.72;5036729;27;96929;-84
2023/02/18 05:40:48;;;;;;;3.60;1.20;;;;;;;9.25;48.36;100122.78;5049058;27;97409;-84
2023/02/18 05:43:14;;;;;;;3.25;1.30;;;;;;;9.26;48.31;100131.50;5038477;27;101373;-83
2023/02/18 05:45:39;;;;;;;3.97;1.38;;;;;;;9.28;48.06;100122.69;5035663;27;101446;-83
2023/02/18 05:48:05;;;;;;;3.05;1.30;;;;;;;9.26;48.27;100121.88;5072602;27;96744;-84
2023/02/18 05:50:31;;;;;;;2.88;1.20;;;;;;;9.15;47.99;100097.78;5053346;27;97055;-83
2023/02/18 05:52:56;;;;;;;3.60;1.30;;;;;;;9.29;47.88;100134.03;5051502;27;101335;-85
2023/02/18 05:55:23;;;;;;;2.88;1.40;;;;;;;9.22;47.62;100119.38;5030253;27;100708;-84
2023/02/18 05:57:49;;;;;;;4.53;1.60;;;;;;;9.27;47.89;100125.34;5039917;27;97351;-83
2023/02/18 06:00:15;;;;;;;3.13;1.33;;;;;;;9.28;47.94;100132.31;5063381;27;97780;-84
2023/02/18 06:02:40;;;;;;;7.50;3.67;;;;;;;9.09;47.57;100089.28;5050195;27;101686;-83
2023/02/18 06:05:06;;;;;;;12.05;5.65;;;;;;;9.28;47.45;100132.31;5038605;27;101533;-82
2023/02/18 06:07:32;;;;;;;4.60;1.90;;;;;;;9.20;47.72;100124.69;5043091;27;97820;-84
2023/02/18 06:09:58;;;;;;;6.50;2.10;;;;;;;9.26;47.74;100141.97;5024050;27;96974;-84
2023/02/18 06:12:23;;;;;;;8.52;3.50;;;;;;;9.27;47.75;100141.91;5064503;27;97950;-84
2023/02/18 06:14:49;;;;;;;3.40;2.03;;;;;;;9.25;47.24;100141.13;5049808;27;101543;-84
2023/02/18 06:17:15;;;;;;;3.92;1.25;;;;;;;9.27;47.50;100147.16;5027658;27;97272;-84
2023/02/18 06:19:40;;;;;;;5.38;2.28;;;;;;;9.27;47.53;100151.53;5054995;27;98005;-84
2023/02/18 06:22:06;;;;;;;6.30;2.30;;;;;;;9.34;47.80;100150.47;5035711;27;101227;-84
2023/02/18 06:24:33;;;;;;;4.15;1.83;;;;;;;9.40;47.48;100157.25;5038387;27;101403;-84
2023/02/18 06:26:58;;;;;;;4.80;1.90;;;;;;;9.38;47.38;100157.31;5051235;27;97372;-84
2023/02/18 06:29:24;;;;;;;4.40;1.70;;;;;;;9.33;47.97;100140.88;5056158;27;97366;-84
2023/02/18 06:31:50;;;;;;;5.18;1.65;;;;;;;9.42;47.64;100145.81;5038636;27;100465;-85
2023/02/18 06:34:15;;;;;;;4.00;1.45;;;;;;;9.47;47.50;100153.53;5027982;27;101362;-83
2023/02/18 06:36:41;;;;;;;3.70;1.20;;;;;;;9.48;47.48;100158.75;5023982;27;97123;-84
2023/02/18 06:39:07;;;;;;;2.78;1.02;;;;;;;9.51;47.34;100145.53;5035200;27;96995;-85
2023/02/18 06:41:33;;;;;;;7.10;1.60;;;;;;;9.52;47.88;100157.72;5047327;27;98184;-84
2023/02/18 06:43:58;;;;;;;3.30;1.30;;;;;;;9.48;47.69;100152.63;5037939;27;101479;-84
2023/02/18 06:46:24;;;;;;;5.68;1.88;;;;;;;9.58;47.54;100163.69;5033013;27;97097;-83
2023/02/18 06:48:50;;;;;;;5.60;1.63;;;;;;;9.42;47.77;100148.44;5021422;27;97268;-84
2023/02/18 06:51:15;;;;;;;3.92;1.80;;;;;;;9.52;47.66;100159.50;5039712;27;101495;-84
2023/02/18 06:53:42;;;;;;;3.20;1.58;;;;;;;9.56;47.53;100158.47;5053371;27;101100;-84
2023/02/18 06:56:08;;;;;;;4.22;1.58;;;;;;;9.53;47.93;100159.41;5049722;27;96738;-83
2023/02/18 06:58:34;;;;;;;4.55;1.48;;;;;;;9.55;48.07;100169.03;5022668;27;97456;-84
2023/02/18 07:01:00;;;;;;;2.20;1.27;;;;;;;9.56;48.16;100174.19;5052011;27;101402;-83
2023/02/18 07:03:25;;;;;;;5.88;1.83;;;;;;;9.58;47.99;100169.78;5030557;27;101906;-83
2023/02/18 07:05:51;;;;;;;4.20;1.60;;;;;;;9.58;47.95;100174.16;5038225;27;97688;-83
2023/02/18 07:08:17;;;;;;;7.18;2.17;;;;;;;9.60;47.47;100172.31;5059186;27;96798;-83
2023/02/18 07:10:42;;;;;;;4.25;1.70;;;;;;;9.45;47.91;100158.84;5032264;27;100983;-84
2023/02/18 07:13:08;;;;;;;5.68;2.05;;;;;;;9.55;47.74;100182.97;5049761;27;98488;-84
2023/02/18 07:15:33;;;;;;;7.85;1.60;;;;;;;9.29;48.11;100134.03;5056255;27;97112;-84
2023/02/18 07:17:59;;;;;;;5.55;2.10;;;;;;;9.47;48.08;100158.78;5041723;27;98426;-83
2023/02/18 07:20:25;;;;;;;3.38;1.70;;;;;;;9.35;47.83;100144.31;5028366;27;101383;-83
2023/02/18 07:22:51;;;;;;;3.53;1.60;;;;;;;9.52;47.81;100170.81;5030972;27;101092;-83
2023/02/18 07:25:17;;;;;;;2.03;1.20;;;;;;;9.33;47.70;100129.53;5033481;27;97246;-84
2023/02/18 07:27:42;;;;;;;5.43;1.77;;;;;;;9.62;48.38;100170.53;5030263;27;97569;-84
2023/02/18 07:30:08;;;;;;;8.23;1.88;;;;;;;9.59;47.98;100170.63;5033045;27;101983;-85
2023/02/18 07:32:34;;;;;;;5.57;1.10;;;;;;;9.59;47.81;100171.47;5057852;27;102629;-84
2023/02/18 07:35:00;;;;;;;2.55;1.02;;;;;;;9.53;48.28;100169.91;5038572;27;96751;-83
2023/02/18 07:37:25;;;;;;;2.08;1.30;;;;;;;9.47;48.09;100158.78;5050908;27;97512;-83
2023/02/18 07:39:51;;;;;;;4.30;1.40;;;;;;;9.61;47.82;100177.53;5025482;27;101500;-83
2023/02/18 07:42:17;;;;;;;2.67;1.25;;;;;;;9.63;48.07;100170.47;5048522;27;101386;-85
2023/02/18 07:44:43;;;;;;;3.35;1.58;;;;;;;9.68;48.33;100165.94;5053124;27;97151;-84
2023/02/18 07:47:12;;;;;;;3.05;1.30;;;;;;;9.72;47.95;100178.03;5044571;27;97215;-85
2023/02/18 07:49:38;;;;;;;4.25;1.33;;;;;;;9.73;48.25;100168.41;5046119;27;101099;-84
2023/02/18 07:52:04;;;;;;;4.82;1.05;;;;;;;9.70;48.25;100165.88;5034219;27;100807;-84
2023/02/18 07:54:29;;;;;;;3.55;1.13;;;;;;;9.75;48.25;100164.84;5045163;27;96841;-84
2023/02/18 07:56:55;;;;;;;2.10;1.20;;;;;;;9.83;48.12;100176.81;5048814;27;99182;-84
2023/02/18 07:59:21;;;;;;;4.82;1.48;;;;;;;9.84;48.43;100176.78;5050130;27;101578;-83
2023/02/18 08:01:46;;;;;;;4.40;1.00;;;;;;;9.81;48.24;100169.03;5045758;27;100725;-84
2023/02/18 08:04:12;;;;;;;2.67;1.08;;;;;;;9.80;48.44;100167.28;5035520;27;96940;-83
2023/02/18 08:06:40;;;;;;;4.47;1.65;;;;;;;9.79;48.44;100151.63;5050702;27;98722;-85
2023/02/18 08:09:06;;;;;;;4.80;1.40;;;;;;;9.84;48.42;100174.16;5046147;27;97369;-84
2023/02/18 08:11:32;;;;;;;4.60;1.75;;;;;;;9.81;48.35;100179.50;5042068;27;97992;-84
2023/02/18 08:13:58;;;;;;;4.57;1.33;;;;;;;9.83;48.86;100182.06;5049995;27;97633;-84
2023/02/18 08:16:24;;;;;;;3.22;1.10;;;;;;;9.83;48.66;100182.94;5044941;27;97378;-83
2023/02/18 08:18:50;;;;;;;4.10;1.40;;;;;;;9.90;48.72;100183.59;5035203;27;101071;-83
2023/02/18 08:21:18;;;;;;;4.53;1.30;;;;;;;9.86;48.75;100172.34;5044043;27;101029;-87
2023/02/18 08:23:44;;;;;;;4.72;2.13;;;;;;;9.92;49.25;100179.16;5032282;27;97383;-84
2023/02/18 08:26:10;;;;;;;3.50;1.40;;;;;;;9.86;48.68;100167.09;5020763;27;97231;-84
2023/02/18 08:28:40;;;;;;;5.57;1.40;;;;;;;9.86;49.36;100164.50;5034109;27;98558;-83
2023/02/18 08:31:06;;;;;;;4.60;1.75;;;;;;;9.97;49.07;100166.72;5051713;27;97543;-83
2023/02/18 08:33:32;;;;;;;3.22;1.35;;;;;;;10.01;49.06;100167.50;5029182;27;97337;-84
2023/02/18 08:35:58;;;;;;;3.83;1.75;;;;;;;10.09;49.19;100168.91;5036803;27;97259;-85
2023/02/18 08:38:24;;;;;;;6.10;1.80;;;;;;;10.04;48.91;100159.53;5033647;27;101546;-83
2023/02/18 08:40:50;;;;;;;6.90;1.70;;;;;;;10.12;48.92;100162.72;5042789;27;97913;-78
2023/02/18 08:43:16;;;;;;;2.95;1.50;;;;;;;10.14;49.11;100159.13;5064891;27;97165;-84
2023/02/18 08:45:43;;;;;;;4.93;1.70;;;;;;;10.14;48.62;100163.53;5051066;27;97505;-84
2023/02/18 08:48:10;;;;;;;3.60;1.25;;;;;;;10.12;48.78;100150.47;5054894;27;101339;-84
2023/02/18 08:50:36;;;;;;;5.82;1.63;;;;;;;10.24;49.19;100164.06;5029165;27;101186;-83
2023/02/18 08:53:02;;;;;;;6.25;1.67;;;;;;;10.08;48.33;100158.50;5034385;27;97406;-83
2023/02/18 08:55:29;;;;;;;3.60;1.15;;;;;;;10.08;48.38;100153.25;5043477;27;98322;-84
2023/02/18 08:57:55;;;;;;;4.30;1.40;;;;;;;10.23;48.50;100172.84;5043873;27;98146;-84
2023/02/18 09:00:20;;;;;;;4.93;1.42;;;;;;;10.25;48.68;100181.53;5050995;27;97284;-84
2023/02/18 09:02:46;;;;;;;4.13;1.38;;;;;;;10.20;48.18;100185.16;5067924;27;96807;-84
2023/02/18 09:05:12;;;;;;;2.47;1.38;;;;;;;10.23;47.89;100178.94;5020002;27;96892;-83
2023/02/18 09:07:38;;;;;;;4.82;2.17;;;;;;;10.05;48.24;100169.09;5050469;27;101466;-84
2023/02/18 09:10:05;;;;;;;4.47;2.10;;;;;;;10.02;47.93;100158.72;5034802;27;100992;-84
2023/02/18 09:12:30;;;;;;;3.78;1.50;;;;;;;10.12;48.00;100168.84;5050313;27;96746;-87
2023/02/18 09:14:56;;;;;;;4.15;2.13;;;;;;;10.14;47.78;100155.66;5053913;27;96887;-87
2023/02/18 09:17:22;;;;;;;4.55;2.00;;;;;;;10.14;48.11;100159.13;5033482;27;101933;-87
2023/02/18 09:19:47;;;;;;;4.70;2.30;;;;;;;10.23;48.38;100164.97;5050093;27;101377;-87
2023/02/18 09:22:13;;;;;;;3.50;1.95;;;;;;;10.03;48.05;100126.31;5027919;27;97247;-87
2023/02/18 09:24:40;;;;;;;3.03;1.58;;;;;;;10.22;48.53;100153.63;5039111;27;97448;-87
2023/02/18 09:27:06;;;;;;;3.28;1.42;;;;;;;10.30;48.71;100153.41;5036180;27;101165;-80
2023/02/18 09:29:32;;;;;;;3.22;1.40;;;;;;;10.29;48.49;100144.66;5049562;27;97355;-80
2023/02/18 09:32:01;;;;;;;3.78;0.98;;;;;;;10.30;48.18;100145.53;5066175;27;97480;-81
2023/02/18 09:34:27;;;;;;;5.50;1.10;;;;;;;10.18;48.35;100137.16;5052403;27;96921;-80
2023/02/18 09:36:52;;;;;;;2.78;1.10;;;;;;;10.32;48.03;100159.44;5051279;27;101494;-79
2023/02/18 09:39:19;;;;;;;3.20;1.70;;;;;;;10.36;48.68;100155.81;5049320;27;97441;-81
2023/02/18 09:41:46;;;;;;;3.75;1.40;;;;;;;10.41;48.87;100154.72;5066753;27;98153;-81
2023/02/18 09:44:33;;;;;;;1.70;0.93;;;;;;;10.45;48.30;100154.63;5057137;27;96924;-81
2023/02/18 09:47:12;;;;;;;4.90;1.27;;;;;;;10.49;48.41;100153.59;5027884;27;101688;-82
2023/02/18 09:49:40;;;;;;;3.83;0.80;;;;;;;10.47;48.93;100156.28;5034325;27;98666;-85
2023/02/18 09:52:12;;;;;;;2.15;0.90;;;;;;;10.48;48.95;100151.88;5028443;27;97125;-80
2023/02/18 09:54:37;;;;;;;3.83;1.13;;;;;;;10.50;49.68;100153.53;5062445;27;97632;-82
2023/02/18 09:57:04;;;;;;;2.88;1.02;;;;;;;10.51;49.57;100146.53;5045551;27;97755;-82
2023/02/18 09:59:30;;;;;;;4.18;1.33;;;;;;;10.53;49.85;100144.69;5037075;27;97904;-84
2023/02/18 10:01:56;;;;;;;4.00;1.23;;;;;;;10.55;50.48;100153.34;5051306;27;97127;-84
2023/02/18 10:04:31;;;;;;;4.75;1.30;;;;;;;10.43;50.27;100120.53;5038992;27;96936;-80
2023/02/18 10:06:57;;;;;;;2.15;1.23;;;;;;;10.51;51.04;100150.00;5024958;27;99753;-80
2023/02/18 10:09:27;;;;;;;2.95;1.38;;;;;;;10.50;51.27;100152.66;5032121;27;101546;-80
2023/02/18 10:12:01;;;;;;;4.40;1.33;;;;;;;10.53;51.31;100160.41;5050607;27;97442;-80
2023/02/18 10:14:28;;;;;;;2.83;1.25;;;;;;;10.52;51.13;100150.84;5044256;27;97383;-80
2023/02/18 10:16:55;;;;;;;3.30;1.10;;;;;;;10.53;51.46;100142.06;5028570;27;100953;-81
2023/02/18 10:19:23;;;;;;;2.75;1.17;;;;;;;10.50;51.17;100134.28;5052221;27;97821;-80
2023/02/18 10:21:50;;;;;;;4.15;1.30;;;;;;;10.49;51.85;100141.31;5055841;27;97130;-81
2023/02/18 10:24:24;;;;;;;3.75;1.25;;;;;;;10.46;51.81;100125.69;5046651;27;96952;-80
2023/02/18 10:26:50;;;;;;;2.60;1.30;;;;;;;10.46;52.23;100127.47;5046698;27;101339;-80
2023/02/18 10:29:18;;;;;;;4.43;1.50;;;;;;;10.43;53.02;100124.03;5061739;27;101005;-80
2023/02/18 10:31:53;;;;;;;3.97;1.67;;;;;;;10.28;54.19;100098.34;5050118;27;97188;-80
2023/02/18 10:34:41;;;;;;;3.50;1.60;;;;;;;10.28;54.77;100092.25;5053747;27;97551;-80
2023/02/18 10:37:42;;;;;;;7.35;2.10;;;;;;;10.31;54.72;100106.09;5035743;27;101469;-80
2023/02/18 10:40:42;;;;;;;3.17;1.50;;;;;;;10.29;55.72;100100.06;5070830;27;97822;-81
2023/02/18 10:43:07;;;;;;;5.15;1.95;;;;;;;10.31;55.25;100087.75;5050374;27;97199;-80
2023/02/18 10:45:47;;;;;;;4.68;1.80;;;;;;;10.39;56.00;100088.31;5051002;27;97779;-78
2023/02/18 10:48:30;;;;;;;4.45;1.83;;;;;;;10.38;56.06;100080.50;5034039;27;101990;-78
2023/02/18 10:50:59;;;;;;;3.67;1.90;;;;;;;10.30;56.33;100049.31;5051674;27;100969;-83
2023/02/18 10:53:37;;;;;;;7.00;2.22;;;;;;;10.31;56.79;100039.66;5049299;27;97768;-82
2023/02/18 10:56:05;;;;;;;7.13;1.50;;;;;;;10.33;56.50;100041.31;5071352;27;97112;-83
2023/02/18 10:58:34;;;;;;;6.15;2.00;;;;;;;10.47;57.15;100053.06;5048912;27;101497;-82
2023/02/18 11:01:04;;;;;;;4.47;1.48;;;;;;;10.40;56.46;100041.94;5054959;27;101433;-83
2023/02/18 11:03:49;;;;;;;6.57;1.63;;;;;;;10.40;57.09;100028.81;5043074;27;97183;-82
2023/02/18 11:06:28;;;;;;;3.63;1.50;;;;;;;10.38;57.07;100018.41;5047546;27;97155;-82
2023/02/18 11:08:55;;;;;;;4.32;1.48;;;;;;;10.45;57.03;100029.50;5063536;27;97622;-81
2023/02/18 11:11:37;;;;;;;4.35;1.65;;;;;;;10.45;57.41;100020.78;5027328;27;101457;-81
2023/02/18 11:14:05;;;;;;;7.15;1.52;;;;;;;10.50;57.40;100016.19;5052140;27;96817;-81
2023/02/18 11:16:52;;;;;;;4.18;2.08;;;;;;;10.54;57.43;100013.41;5047520;27;97188;-81
2023/02/18 11:19:38;;;;;;;3.88;1.75;;;;;;;10.55;57.45;99999.34;5035424;27;102129;-81
2023/02/18 11:22:33;;;;;;;4.65;1.70;;;;;;;10.56;57.92;100000.22;5051108;27;97164;-82
2023/02/18 11:25:01;;;;;;;7.43;2.20;;;;;;;10.54;57.86;99991.56;5048228;27;96980;-81
2023/02/18 11:27:31;;;;;;;4.57;1.98;;;;;;;10.55;57.77;99990.63;5025970;27;96943;-81
2023/02/18 11:30:18;;;;;;;5.70;2.13;;;;;;;10.51;57.76;99978.56;5037040;27;101292;-81
2023/02/18 11:32:47;;;;;;;4.72;2.10;;;;;;;10.49;57.61;99967.25;5064388;27;101108;-81
2023/02/18 11:35:21;;;;;;;5.70;2.15;;;;;;;10.49;57.63;99967.25;5030557;27;97174;-81